Time;durP1;ratioP1;P1;durP2;ratioP2;P2;SDS_P1;SDS_P2;PMS_P1;PMS_P2;Temp;Humidity;BMP_temperature;BMP_pressure;BME280_temperature;BME280_humidity;BME280_pressure;Samples;Min_cycle;Max_cycle;Signal;HPM_P1;HPM_P2
2023/08/29 00:01:57;;;;;;;13.07;11.90;;;;;;;;;;2614450;54;20420;-73
2023/08/29 00:04:26;;;;;;;15.23;13.63;;;;;;;;;;2614777;54;20395;-74
2023/08/29 00:06:52;;;;;;;13.17;11.97;;;;;;;;;;2613853;54;20419;-74
2023/08/29 00:09:18;;;;;;;16.07;14.47;;;;;;;;;;2614039;54;20443;-74
2023/08/29 00:11:44;;;;;;;16.33;13.13;;;;;;;;;;2613699;47;20507;-75
2023/08/29 00:14:10;;;;;;;19.47;13.60;;;;;;;;;;2613761;47;20420;-74
2023/08/29 00:16:36;;;;;;;31.27;15.20;;;;;;;;;;2612799;54;20431;-73
2023/08/29 00:19:02;;;;;;;14.40;13.03;;;;;;;;;;2609947;47;20467;-73
2023/08/29 00:21:28;;;;;;;16.07;14.37;;;;;;;;;;2610525;39;20983;-72
2023/08/29 00:23:54;;;;;;;15.43;13.87;;;;;;;;;;2611481;54;20435;-73
2023/08/29 00:26:21;;;;;;;14.63;13.13;;;;;;;;;;2609188;54;21639;-71
2023/08/29 00:28:47;;;;;;;17.70;14.60;;;;;;;;;;2610610;54;20435;-73
2023/08/29 00:31:13;;;;;;;18.40;14.27;;;;;;;;;;2610455;47;20498;-73
2023/08/29 00:33:39;;;;;;;17.47;14.57;;;;;;;;;;2611046;54;20827;-72
2023/08/29 00:36:05;;;;;;;16.50;14.40;;;;;;;;;;2611291;54;20404;-72
2023/08/29 00:38:31;;;;;;;18.00;14.53;;;;;;;;;;2611737;54;20434;-73
2023/08/29 00:40:59;;;;;;;15.33;13.77;;;;;;;;;;2610687;54;20450;-73
2023/08/29 00:43:25;;;;;;;17.17;15.37;;;;;;;;;;2611277;54;21191;-73
2023/08/29 00:45:52;;;;;;;17.33;15.50;;;;;;;;;;2609689;51;20508;-73
2023/08/29 00:48:18;;;;;;;17.20;15.50;;;;;;;;;;2611262;54;20400;-72
2023/08/29 00:50:44;;;;;;;16.63;14.93;;;;;;;;;;2611999;39;20906;-73
2023/08/29 00:53:11;;;;;;;20.63;14.67;;;;;;;;;;2611287;54;20425;-73
2023/08/29 00:55:37;;;;;;;17.57;13.77;;;;;;;;;;2611065;54;20402;-71
2023/08/29 00:58:04;;;;;;;16.53;14.77;;;;;;;;;;2611131;54;20438;-72
2023/08/29 01:00:30;;;;;;;15.40;13.80;;;;;;;;;;2610913;39;20893;-72
2023/08/29 01:02:57;;;;;;;18.60;14.07;;;;;;;;;;2610426;54;20432;-72
2023/08/29 01:05:23;;;;;;;19.00;14.47;;;;;;;;;;2610205;47;21541;-73
2023/08/29 01:07:53;;;;;;;15.90;14.37;;;;;;;;;;2611088;54;20554;-72
2023/08/29 01:10:22;;;;;;;20.30;14.00;;;;;;;;;;2611276;54;20558;-71
2023/08/29 01:12:52;;;;;;;15.60;13.73;;;;;;;;;;2611171;54;20415;-72
2023/08/29 01:15:22;;;;;;;15.80;14.20;;;;;;;;;;2611392;54;21072;-73
2023/08/29 01:18:03;;;;;;;15.57;14.00;;;;;;;;;;2610843;54;20419;-74
2023/08/29 01:20:30;;;;;;;18.13;14.70;;;;;;;;;;2611424;54;20399;-73
2023/08/29 01:23:08;;;;;;;16.23;14.60;;;;;;;;;;2610065;54;20418;-73
2023/08/29 01:25:49;;;;;;;17.93;15.73;;;;;;;;;;2610760;54;20415;-73
2023/08/29 01:28:15;;;;;;;20.60;15.20;;;;;;;;;;2611175;54;20399;-72
2023/08/29 01:30:42;;;;;;;16.60;15.00;;;;;;;;;;2610859;54;20454;-73
2023/08/29 01:33:09;;;;;;;17.10;14.67;;;;;;;;;;2611026;54;20946;-73
2023/08/29 01:35:35;;;;;;;18.57;16.10;;;;;;;;;;2611384;54;20406;-73
2023/08/29 01:38:01;;;;;;;18.17;15.70;;;;;;;;;;2611564;39;20828;-73
2023/08/29 01:40:27;;;;;;;16.00;14.27;;;;;;;;;;2611341;46;20403;-73
2023/08/29 01:42:53;;;;;;;18.10;14.73;;;;;;;;;;2612197;39;20814;-72
2023/08/29 01:45:19;;;;;;;17.20;15.40;;;;;;;;;;2612109;54;20463;-72
2023/08/29 01:47:45;;;;;;;27.83;14.83;;;;;;;;;;2612015;54;21048;-73
2023/08/29 01:50:12;;;;;;;20.33;16.87;;;;;;;;;;2611306;54;20403;-73
2023/08/29 01:52:38;;;;;;;17.43;14.40;;;;;;;;;;2611824;54;20779;-73
2023/08/29 01:55:04;;;;;;;18.77;15.80;;;;;;;;;;2611597;54;20615;-73
2023/08/29 01:57:35;;;;;;;17.20;15.50;;;;;;;;;;2610624;54;20431;-73
2023/08/29 02:00:02;;;;;;;18.80;15.63;;;;;;;;;;2612073;54;20427;-73
2023/08/29 02:02:29;;;;;;;23.37;15.30;;;;;;;;;;2612021;54;21069;-72
2023/08/29 02:04:55;;;;;;;16.03;14.17;;;;;;;;;;2611285;54;20399;-73
2023/08/29 02:07:21;;;;;;;17.00;14.40;;;;;;;;;;2611046;54;20431;-71
2023/08/29 02:09:47;;;;;;;17.77;14.47;;;;;;;;;;2612115;54;20434;-72
2023/08/29 02:12:13;;;;;;;16.60;14.73;;;;;;;;;;2611223;47;20445;-73
2023/08/29 02:14:39;;;;;;;17.77;15.87;;;;;;;;;;2612274;54;20399;-72
2023/08/29 02:17:05;;;;;;;20.13;15.20;;;;;;;;;;2611497;54;20447;-73
2023/08/29 02:19:31;;;;;;;17.77;14.67;;;;;;;;;;2612041;54;20392;-73
2023/08/29 02:21:57;;;;;;;20.40;17.50;;;;;;;;;;2611790;54;20428;-73
2023/08/29 02:24:24;;;;;;;17.90;15.53;;;;;;;;;;2611438;54;20416;-73
2023/08/29 02:26:50;;;;;;;18.83;15.70;;;;;;;;;;2611779;54;20450;-73
2023/08/29 02:29:16;;;;;;;21.50;16.40;;;;;;;;;;2611989;39;20837;-73
2023/08/29 02:31:42;;;;;;;21.60;16.33;;;;;;;;;;2611427;54;20470;-72
2023/08/29 02:34:08;;;;;;;18.03;15.00;;;;;;;;;;2611044;46;20442;-73
2023/08/29 02:36:36;;;;;;;19.27;15.07;;;;;;;;;;2612660;39;20817;-74
2023/08/29 02:39:02;;;;;;;17.90;15.40;;;;;;;;;;2614712;54;20431;-74
2023/08/29 02:41:30;;;;;;;18.13;16.23;;;;;;;;;;2614780;54;20510;-74
2023/08/29 02:43:57;;;;;;;16.90;15.20;;;;;;;;;;2614102;47;20407;-74
2023/08/29 02:46:24;;;;;;;20.40;16.40;;;;;;;;;;2614730;54;20415;-75
2023/08/29 02:48:50;;;;;;;18.20;16.03;;;;;;;;;;2614837;54;20422;-75
2023/08/29 02:51:18;;;;;;;18.67;15.47;;;;;;;;;;2614647;54;20371;-74
2023/08/29 02:53:45;;;;;;;17.50;15.63;;;;;;;;;;2613888;54;20423;-74
2023/08/29 02:56:12;;;;;;;19.07;16.17;;;;;;;;;;2615022;54;21479;-74
2023/08/29 02:58:38;;;;;;;20.33;16.00;;;;;;;;;;2613827;47;20938;-74
2023/08/29 03:01:12;;;;;;;17.37;15.57;;;;;;;;;;2615050;39;20865;-75
2023/08/29 03:03:38;;;;;;;23.40;17.17;;;;;;;;;;2615026;54;20411;-75
2023/08/29 03:06:14;;;;;;;18.03;16.13;;;;;;;;;;2614781;54;20874;-73
2023/08/29 03:08:40;;;;;;;19.33;17.13;;;;;;;;;;2614365;46;20486;-73
2023/08/29 03:11:06;;;;;;;22.93;14.80;;;;;;;;;;2614151;54;20419;-73
2023/08/29 03:13:33;;;;;;;18.20;15.57;;;;;;;;;;2614770;54;20432;-74
2023/08/29 03:16:00;;;;;;;17.93;16.03;;;;;;;;;;2613776;54;20447;-75
2023/08/29 03:18:29;;;;;;;18.00;16.30;;;;;;;;;;2614321;54;20519;-74
2023/08/29 03:20:56;;;;;;;18.53;16.57;;;;;;;;;;2615104;54;20428;-74
2023/08/29 03:23:22;;;;;;;23.43;16.63;;;;;;;;;;2614966;54;20567;-74
2023/08/29 03:25:48;;;;;;;17.53;15.70;;;;;;;;;;2614689;54;20421;-74
2023/08/29 03:28:15;;;;;;;16.63;14.97;;;;;;;;;;2615180;54;20406;-74
2023/08/29 03:30:43;;;;;;;19.30;15.90;;;;;;;;;;2614799;54;20386;-74
2023/08/29 03:33:09;;;;;;;17.60;14.83;;;;;;;;;;2614919;39;20838;-74
2023/08/29 03:35:35;;;;;;;22.60;16.57;;;;;;;;;;2614508;54;20415;-74
2023/08/29 03:38:01;;;;;;;21.93;15.30;;;;;;;;;;2615025;54;20922;-74
2023/08/29 03:40:27;;;;;;;17.17;15.33;;;;;;;;;;2614349;54;20413;-74
2023/08/29 03:42:53;;;;;;;16.60;14.87;;;;;;;;;;2614318;54;20415;-73
2023/08/29 03:45:46;;;;;;;16.90;14.20;;;;;;;;;;2614370;54;20419;-73
2023/08/29 03:48:12;;;;;;;18.97;14.10;;;;;;;;;;2610806;54;20443;-72
2023/08/29 03:50:38;;;;;;;16.43;14.63;;;;;;;;;;2609619;54;20432;-72
2023/08/29 03:53:04;;;;;;;16.33;14.67;;;;;;;;;;2609730;54;20458;-72
2023/08/29 03:55:30;;;;;;;17.27;14.03;;;;;;;;;;2610128;46;20430;-73
2023/08/29 03:57:56;;;;;;;16.77;15.07;;;;;;;;;;2610215;54;20508;-73
2023/08/29 04:00:23;;;;;;;21.03;15.70;;;;;;;;;;2610053;54;20523;-73
2023/08/29 04:02:49;;;;;;;17.07;15.27;;;;;;;;;;2610132;47;20562;-73
2023/08/29 04:05:15;;;;;;;15.03;13.53;;;;;;;;;;2609923;54;21003;-73
2023/08/29 04:07:41;;;;;;;14.93;13.43;;;;;;;;;;2609896;54;20408;-73
2023/08/29 04:10:07;;;;;;;16.00;13.77;;;;;;;;;;2609261;54;20427;-73
2023/08/29 04:12:33;;;;;;;17.73;14.57;;;;;;;;;;2609925;54;20430;-71
2023/08/29 04:14:59;;;;;;;16.23;13.63;;;;;;;;;;2608575;54;20415;-73
2023/08/29 04:17:25;;;;;;;18.50;13.87;;;;;;;;;;2609047;54;20427;-73
2023/08/29 04:19:51;;;;;;;16.07;13.53;;;;;;;;;;2609917;54;20415;-72
2023/08/29 04:22:17;;;;;;;19.57;15.00;;;;;;;;;;2609023;47;20431;-73
2023/08/29 04:24:45;;;;;;;19.70;15.10;;;;;;;;;;2610522;54;20518;-74
2023/08/29 04:27:11;;;;;;;16.20;13.87;;;;;;;;;;2611886;54;20450;-73
2023/08/29 04:29:37;;;;;;;15.00;13.50;;;;;;;;;;2611403;54;20460;-73
2023/08/29 04:32:04;;;;;;;20.37;14.50;;;;;;;;;;2610685;54;20570;-73
2023/08/29 04:34:30;;;;;;;16.30;14.60;;;;;;;;;;2611662;39;20804;-73
2023/08/29 04:36:56;;;;;;;16.73;14.80;;;;;;;;;;2611232;54;20396;-74
2023/08/29 04:39:22;;;;;;;14.87;13.33;;;;;;;;;;2610455;54;20458;-73
2023/08/29 04:41:50;;;;;;;18.57;14.43;;;;;;;;;;2609546;54;20489;-72
2023/08/29 04:44:16;;;;;;;19.23;14.80;;;;;;;;;;2611340;54;20439;-72
2023/08/29 04:46:42;;;;;;;16.87;15.07;;;;;;;;;;2611274;54;20427;-72
2023/08/29 04:49:08;;;;;;;16.37;13.97;;;;;;;;;;2610556;47;20467;-72
2023/08/29 04:51:35;;;;;;;18.27;16.30;;;;;;;;;;2609866;47;20838;-73
2023/08/29 04:54:01;;;;;;;19.07;14.97;;;;;;;;;;2611524;54;20526;-71
2023/08/29 04:56:28;;;;;;;16.77;15.07;;;;;;;;;;2611686;54;20515;-73
2023/08/29 04:58:54;;;;;;;19.50;14.80;;;;;;;;;;2612462;54;20409;-73
2023/08/29 05:01:20;;;;;;;21.10;16.50;;;;;;;;;;2612081;54;20472;-74
2023/08/29 05:03:47;;;;;;;19.90;16.20;;;;;;;;;;2612795;54;20487;-74
2023/08/29 05:06:13;;;;;;;17.63;15.87;;;;;;;;;;2613698;39;20917;-76
2023/08/29 05:08:39;;;;;;;22.33;15.70;;;;;;;;;;2613460;39;20916;-72
2023/08/29 05:11:05;;;;;;;17.10;15.30;;;;;;;;;;2610398;54;20416;-73
2023/08/29 05:13:31;;;;;;;19.17;16.43;;;;;;;;;;2612224;54;20433;-73
2023/08/29 05:15:57;;;;;;;27.70;18.77;;;;;;;;;;2612634;54;20414;-72
2023/08/29 05:18:24;;;;;;;18.37;15.80;;;;;;;;;;2611619;47;20398;-72
2023/08/29 05:20:50;;;;;;;23.03;17.20;;;;;;;;;;2613404;54;20515;-73
2023/08/29 05:23:16;;;;;;;18.77;16.10;;;;;;;;;;2613728;54;20428;-73
2023/08/29 05:25:43;;;;;;;23.07;16.00;;;;;;;;;;2613584;54;20435;-72
2023/08/29 05:28:09;;;;;;;24.83;17.40;;;;;;;;;;2613114;54;20543;-72
2023/08/29 05:30:36;;;;;;;23.43;16.80;;;;;;;;;;2613498;39;20888;-72
2023/08/29 05:33:02;;;;;;;23.97;15.30;;;;;;;;;;2614442;39;21151;-72
2023/08/29 05:35:28;;;;;;;25.87;17.90;;;;;;;;;;2612844;39;20784;-72
2023/08/29 05:37:54;;;;;;;21.77;17.70;;;;;;;;;;2612528;47;20563;-71
2023/08/29 05:40:20;;;;;;;25.07;19.00;;;;;;;;;;2613806;54;20430;-72
2023/08/29 05:42:46;;;;;;;24.43;18.43;;;;;;;;;;2613426;39;20809;-73
2023/08/29 05:45:12;;;;;;;22.87;19.20;;;;;;;;;;2613309;54;21079;-72
2023/08/29 05:47:38;;;;;;;23.43;18.37;;;;;;;;;;2612937;47;20435;-72
2023/08/29 05:50:04;;;;;;;27.57;18.80;;;;;;;;;;2612247;39;20965;-72
2023/08/29 05:52:31;;;;;;;24.77;19.37;;;;;;;;;;2614322;39;20798;-72
2023/08/29 05:54:57;;;;;;;29.97;21.00;;;;;;;;;;2612638;54;20441;-72
2023/08/29 05:57:23;;;;;;;26.80;19.17;;;;;;;;;;2612816;54;20542;-72
2023/08/29 05:59:49;;;;;;;25.00;19.93;;;;;;;;;;2613470;54;21337;-73
2023/08/29 06:02:15;;;;;;;24.53;19.33;;;;;;;;;;2610745;54;20822;-71
2023/08/29 06:04:41;;;;;;;28.60;22.10;;;;;;;;;;2612409;54;20662;-72
2023/08/29 06:07:08;;;;;;;27.03;21.47;;;;;;;;;;2609685;54;20436;-70
2023/08/29 06:09:34;;;;;;;30.70;21.00;;;;;;;;;;2610090;47;20590;-69
2023/08/29 06:12:00;;;;;;;27.93;19.87;;;;;;;;;;2610920;54;20414;-69
2023/08/29 06:14:26;;;;;;;30.17;21.17;;;;;;;;;;2611572;54;21136;-70
2023/08/29 06:16:52;;;;;;;30.03;21.93;;;;;;;;;;2609533;54;20502;-71
2023/08/29 06:19:18;;;;;;;29.50;21.63;;;;;;;;;;2612334;54;20427;-69
2023/08/29 06:21:44;;;;;;;27.60;20.70;;;;;;;;;;2612037;54;20409;-70
2023/08/29 06:24:10;;;;;;;25.67;20.67;;;;;;;;;;2612376;54;20455;-71
2023/08/29 06:26:37;;;;;;;34.93;19.60;;;;;;;;;;2612244;54;20387;-70
2023/08/29 06:29:04;;;;;;;24.03;19.47;;;;;;;;;;2612098;54;20519;-70
2023/08/29 06:31:30;;;;;;;19.30;17.30;;;;;;;;;;2612379;54;20456;-70
2023/08/29 06:33:56;;;;;;;24.83;20.50;;;;;;;;;;2611775;54;20404;-70
2023/08/29 06:36:22;;;;;;;23.37;18.77;;;;;;;;;;2611292;54;20430;-70
2023/08/29 06:38:48;;;;;;;25.47;20.20;;;;;;;;;;2612479;54;21056;-71
2023/08/29 06:41:14;;;;;;;25.97;20.50;;;;;;;;;;2612401;54;20458;-70
2023/08/29 06:43:49;;;;;;;25.00;19.07;;;;;;;;;;2612363;54;21394;-69
2023/08/29 06:46:17;;;;;;;24.53;19.97;;;;;;;;;;2612091;54;21000;-69
2023/08/29 06:48:43;;;;;;;22.57;20.00;;;;;;;;;;2611931;54;20442;-69
2023/08/29 06:51:10;;;;;;;23.80;19.70;;;;;;;;;;2612176;54;20424;-70
2023/08/29 06:53:36;;;;;;;22.83;19.27;;;;;;;;;;2611641;54;20379;-70
2023/08/29 06:56:03;;;;;;;23.50;19.30;;;;;;;;;;2610277;54;20503;-70
2023/08/29 06:58:30;;;;;;;24.53;20.40;;;;;;;;;;2612142;54;20412;-71
2023/08/29 07:00:56;;;;;;;23.80;20.60;;;;;;;;;;2610976;54;20427;-71
2023/08/29 07:03:22;;;;;;;23.70;18.50;;;;;;;;;;2613318;39;21056;-71
2023/08/29 07:05:48;;;;;;;23.87;19.83;;;;;;;;;;2611219;54;20419;-71
2023/08/29 07:08:14;;;;;;;21.43;18.83;;;;;;;;;;2612711;54;20455;-71
2023/08/29 07:10:40;;;;;;;19.70;17.70;;;;;;;;;;2612026;54;21148;-70
2023/08/29 07:13:06;;;;;;;19.60;17.37;;;;;;;;;;2611633;54;20950;-70
2023/08/29 07:15:32;;;;;;;19.43;17.40;;;;;;;;;;2611061;47;20412;-71
2023/08/29 07:17:58;;;;;;;20.30;18.23;;;;;;;;;;2609610;54;20411;-73
2023/08/29 07:20:24;;;;;;;19.33;17.63;;;;;;;;;;2611781;54;20412;-73
2023/08/29 07:22:50;;;;;;;17.70;16.10;;;;;;;;;;2612840;54;20974;-72
2023/08/29 07:25:19;;;;;;;16.80;15.30;;;;;;;;;;2612798;47;20415;-72
2023/08/29 07:27:46;;;;;;;17.90;16.30;;;;;;;;;;2613357;54;21684;-72
2023/08/29 07:30:15;;;;;;;17.90;16.10;;;;;;;;;;2613265;54;20442;-71
2023/08/29 07:32:42;;;;;;;17.50;15.80;;;;;;;;;;2612566;54;20426;-72
2023/08/29 07:35:09;;;;;;;15.90;14.43;;;;;;;;;;2613395;54;20420;-72
2023/08/29 07:37:35;;;;;;;17.70;15.90;;;;;;;;;;2612869;54;20430;-73
2023/08/29 07:40:01;;;;;;;16.33;14.63;;;;;;;;;;2613069;54;20408;-73
2023/08/29 07:42:28;;;;;;;16.60;15.20;;;;;;;;;;2611929;47;20471;-73
2023/08/29 07:44:54;;;;;;;15.93;14.20;;;;;;;;;;2612966;54;20503;-73
2023/08/29 07:47:20;;;;;;;16.10;14.60;;;;;;;;;;2612983;54;20404;-73
2023/08/29 07:49:46;;;;;;;16.30;14.70;;;;;;;;;;2612890;39;20860;-73
2023/08/29 07:52:12;;;;;;;15.90;14.50;;;;;;;;;;2613002;54;20449;-73
2023/08/29 07:54:39;;;;;;;18.07;16.50;;;;;;;;;;2612306;54;20402;-73
2023/08/29 07:57:05;;;;;;;16.57;14.70;;;;;;;;;;2613008;54;20483;-72
2023/08/29 07:59:31;;;;;;;15.67;14.30;;;;;;;;;;2612987;54;20384;-73
2023/08/29 08:01:57;;;;;;;18.13;15.87;;;;;;;;;;2612266;54;20430;-72
2023/08/29 08:04:23;;;;;;;19.83;14.77;;;;;;;;;;2613316;54;20420;-72
2023/08/29 08:06:49;;;;;;;16.93;15.13;;;;;;;;;;2612187;54;21006;-71
2023/08/29 08:09:16;;;;;;;21.63;16.10;;;;;;;;;;2613152;54;20502;-72
2023/08/29 08:11:42;;;;;;;18.63;15.53;;;;;;;;;;2613110;54;20463;-72
2023/08/29 08:14:08;;;;;;;18.87;17.17;;;;;;;;;;2612928;54;20455;-72
2023/08/29 08:16:34;;;;;;;17.23;15.30;;;;;;;;;;2611832;54;20408;-73
2023/08/29 08:19:00;;;;;;;17.17;15.47;;;;;;;;;;2610421;54;20424;-72
2023/08/29 08:21:26;;;;;;;17.30;15.93;;;;;;;;;;2611963;54;20843;-72
2023/08/29 08:23:53;;;;;;;18.30;16.70;;;;;;;;;;2612054;54;20439;-73
2023/08/29 08:26:19;;;;;;;19.40;17.80;;;;;;;;;;2612367;47;20415;-72
2023/08/29 08:28:46;;;;;;;18.43;16.40;;;;;;;;;;2612204;54;20412;-72
2023/08/29 08:31:12;;;;;;;18.93;17.03;;;;;;;;;;2611307;54;20419;-72
2023/08/29 08:33:40;;;;;;;20.10;17.33;;;;;;;;;;2611919;54;20384;-72
2023/08/29 08:36:06;;;;;;;18.00;16.20;;;;;;;;;;2611596;47;20546;-71
2023/08/29 08:38:32;;;;;;;18.53;16.93;;;;;;;;;;2610075;54;20440;-71
2023/08/29 08:40:59;;;;;;;17.40;15.77;;;;;;;;;;2612091;54;20442;-71
2023/08/29 08:43:25;;;;;;;16.63;15.20;;;;;;;;;;2610549;47;20534;-70
2023/08/29 08:45:52;;;;;;;15.23;13.70;;;;;;;;;;2612308;54;20567;-72
2023/08/29 08:48:19;;;;;;;15.43;14.23;;;;;;;;;;2611117;54;20402;-72
2023/08/29 08:50:47;;;;;;;15.87;14.53;;;;;;;;;;2608947;54;20431;-72
2023/08/29 08:53:15;;;;;;;16.57;15.20;;;;;;;;;;2608600;54;20423;-72
2023/08/29 08:55:41;;;;;;;15.93;14.30;;;;;;;;;;2608240;54;20423;-70
2023/08/29 08:58:07;;;;;;;16.77;15.20;;;;;;;;;;2608979;54;20415;-69
2023/08/29 09:00:33;;;;;;;16.93;15.57;;;;;;;;;;2612149;46;20458;-72
2023/08/29 09:02:59;;;;;;;14.73;13.17;;;;;;;;;;2611259;54;20419;-72
2023/08/29 09:05:26;;;;;;;16.70;15.40;;;;;;;;;;2612335;54;20483;-72
2023/08/29 09:07:52;;;;;;;18.60;17.03;;;;;;;;;;2607441;54;20534;-73
2023/08/29 09:10:19;;;;;;;17.10;15.70;;;;;;;;;;2611393;54;20443;-73
2023/08/29 09:12:46;;;;;;;16.40;14.77;;;;;;;;;;2608640;54;20651;-71
2023/08/29 09:15:14;;;;;;;16.13;14.80;;;;;;;;;;2608165;46;20427;-70
2023/08/29 09:17:45;;;;;;;17.67;15.90;;;;;;;;;;2610321;47;20416;-71
2023/08/29 09:20:11;;;;;;;16.27;14.87;;;;;;;;;;2608597;54;20928;-71
2023/08/29 09:22:39;;;;;;;15.83;14.53;;;;;;;;;;2610605;54;20423;-71
2023/08/29 09:25:06;;;;;;;17.80;16.40;;;;;;;;;;2609452;39;20927;-72
2023/08/29 09:27:39;;;;;;;16.50;15.30;;;;;;;;;;2608715;47;20427;-72
2023/08/29 09:30:10;;;;;;;18.33;16.87;;;;;;;;;;2608779;39;20972;-72
2023/08/29 09:32:37;;;;;;;17.10;15.80;;;;;;;;;;2606421;54;20392;-71
2023/08/29 09:35:05;;;;;;;20.00;16.90;;;;;;;;;;2607492;54;20426;-72
2023/08/29 09:37:32;;;;;;;15.80;14.30;;;;;;;;;;2605908;54;20403;-72
2023/08/29 09:39:59;;;;;;;16.67;15.37;;;;;;;;;;2607484;54;20556;-71
2023/08/29 09:42:25;;;;;;;15.20;14.13;;;;;;;;;;2608460;54;20400;-71
2023/08/29 09:44:51;;;;;;;16.73;15.00;;;;;;;;;;2605764;47;20415;-71
2023/08/29 09:47:23;;;;;;;16.60;15.00;;;;;;;;;;2607620;54;20402;-72
2023/08/29 09:49:50;;;;;;;15.63;14.43;;;;;;;;;;2607367;54;20404;-71
2023/08/29 09:52:16;;;;;;;15.37;14.30;;;;;;;;;;2608050;54;20392;-71
2023/08/29 09:54:45;;;;;;;16.90;15.37;;;;;;;;;;2611973;54;20427;-71
2023/08/29 09:57:11;;;;;;;17.07;15.87;;;;;;;;;;2608003;54;20829;-73
2023/08/29 09:59:39;;;;;;;17.33;16.10;;;;;;;;;;2609661;54;20431;-73
2023/08/29 10:02:06;;;;;;;16.60;15.60;;;;;;;;;;2609858;54;20411;-72
2023/08/29 10:04:33;;;;;;;17.87;16.37;;;;;;;;;;2611110;54;20522;-72
2023/08/29 10:07:00;;;;;;;16.73;15.57;;;;;;;;;;2610033;39;21098;-72
2023/08/29 10:09:27;;;;;;;18.13;16.67;;;;;;;;;;2610647;39;21211;-72
2023/08/29 10:11:54;;;;;;;16.47;15.37;;;;;;;;;;2608443;54;20415;-73
2023/08/29 10:14:22;;;;;;;17.63;16.23;;;;;;;;;;2610426;54;20403;-72
2023/08/29 10:16:49;;;;;;;17.37;16.17;;;;;;;;;;2610644;39;20911;-72
2023/08/29 10:19:17;;;;;;;15.30;14.27;;;;;;;;;;2611161;54;20986;-73
2023/08/29 10:21:44;;;;;;;17.27;16.10;;;;;;;;;;2611448;54;20398;-73
2023/08/29 10:24:12;;;;;;;16.37;15.20;;;;;;;;;;2612554;54;20422;-72
2023/08/29 10:26:39;;;;;;;15.33;14.30;;;;;;;;;;2612586;54;20520;-72
2023/08/29 10:29:06;;;;;;;15.17;14.20;;;;;;;;;;2612057;54;20431;-73
2023/08/29 10:31:36;;;;;;;14.20;13.30;;;;;;;;;;2612525;39;20770;-73
2023/08/29 10:34:05;;;;;;;14.33;13.20;;;;;;;;;;2612197;54;20511;-72
2023/08/29 10:36:31;;;;;;;14.43;13.30;;;;;;;;;;2612458;54;20416;-71
2023/08/29 10:38:58;;;;;;;14.73;13.67;;;;;;;;;;2611888;54;20423;-73
2023/08/29 10:41:24;;;;;;;14.10;13.20;;;;;;;;;;2612885;54;20392;-72
2023/08/29 10:43:53;;;;;;;13.30;12.50;;;;;;;;;;2612602;39;20987;-72
2023/08/29 10:46:20;;;;;;;15.47;14.57;;;;;;;;;;2612809;54;20395;-73
2023/08/29 10:48:47;;;;;;;15.20;14.10;;;;;;;;;;2613271;54;21002;-73
2023/08/29 10:51:22;;;;;;;13.53;12.80;;;;;;;;;;2611862;54;20450;-73
2023/08/29 10:53:49;;;;;;;14.50;13.30;;;;;;;;;;2612441;54;20431;-73
2023/08/29 10:56:17;;;;;;;13.37;12.63;;;;;;;;;;2613166;54;20419;-73
2023/08/29 10:58:44;;;;;;;14.30;13.40;;;;;;;;;;2613644;54;20961;-72
2023/08/29 11:01:26;;;;;;;14.03;13.13;;;;;;;;;;2613383;54;21013;-73
2023/08/29 11:03:54;;;;;;;14.33;13.37;;;;;;;;;;2612176;54;20415;-71
2023/08/29 11:06:22;;;;;;;14.80;13.90;;;;;;;;;;2611604;54;20400;-72
2023/08/29 11:08:49;;;;;;;14.03;12.57;;;;;;;;;;2610693;54;20455;-72
2023/08/29 11:11:19;;;;;;;12.03;11.33;;;;;;;;;;2611441;54;20403;-72
2023/08/29 11:13:57;;;;;;;12.40;11.70;;;;;;;;;;2610074;54;20933;-72
2023/08/29 11:16:24;;;;;;;11.83;11.23;;;;;;;;;;2611739;54;20447;-72
2023/08/29 11:19:09;;;;;;;13.50;12.70;;;;;;;;;;2611180;54;20438;-73
2023/08/29 11:21:35;;;;;;;12.83;12.20;;;;;;;;;;2610298;54;20383;-73
2023/08/29 11:24:05;;;;;;;11.90;11.30;;;;;;;;;;2609697;47;20411;-73
2023/08/29 11:26:35;;;;;;;15.00;10.83;;;;;;;;;;2611296;54;20443;-72
2023/08/29 11:29:01;;;;;;;11.30;10.53;;;;;;;;;;2609655;47;20395;-72
2023/08/29 11:31:27;;;;;;;11.97;11.23;;;;;;;;;;2612684;54;20426;-72
2023/08/29 11:33:54;;;;;;;11.40;10.60;;;;;;;;;;2611506;47;20427;-73
2023/08/29 11:36:23;;;;;;;11.33;10.73;;;;;;;;;;2611822;47;20971;-72
2023/08/29 11:38:49;;;;;;;10.77;10.27;;;;;;;;;;2610313;54;20957;-71
2023/08/29 11:41:16;;;;;;;11.50;11.00;;;;;;;;;;2608262;54;20426;-71
2023/08/29 11:43:42;;;;;;;10.67;10.13;;;;;;;;;;2608932;54;20424;-72
2023/08/29 11:46:08;;;;;;;10.77;10.27;;;;;;;;;;2609801;54;20406;-72
2023/08/29 11:48:35;;;;;;;11.90;11.20;;;;;;;;;;2612185;54;21096;-71
2023/08/29 11:51:04;;;;;;;12.07;11.33;;;;;;;;;;2610799;54;20491;-71
2023/08/29 11:53:32;;;;;;;11.97;11.37;;;;;;;;;;2612157;54;20419;-71
2023/08/29 11:55:59;;;;;;;10.87;10.37;;;;;;;;;;2611113;54;20418;-71
2023/08/29 11:58:29;;;;;;;10.70;10.20;;;;;;;;;;2610604;54;20411;-71
2023/08/29 12:00:56;;;;;;;10.87;10.37;;;;;;;;;;2611094;39;20852;-71
2023/08/29 12:03:23;;;;;;;12.20;11.70;;;;;;;;;;2610911;39;20856;-72
2023/08/29 12:05:49;;;;;;;10.60;10.10;;;;;;;;;;2611767;54;20459;-72
2023/08/29 12:08:16;;;;;;;11.37;10.87;;;;;;;;;;2612338;54;20540;-72
2023/08/29 12:10:52;;;;;;;11.47;10.87;;;;;;;;;;2611275;39;20776;-71
2023/08/29 12:13:18;;;;;;;11.77;11.20;;;;;;;;;;2610765;54;20430;-72
2023/08/29 12:15:45;;;;;;;11.80;11.30;;;;;;;;;;2610335;54;20392;-72
2023/08/29 12:18:24;;;;;;;11.30;10.80;;;;;;;;;;2609428;46;20427;-72
2023/08/29 12:20:51;;;;;;;11.33;10.83;;;;;;;;;;2609175;54;21266;-72
2023/08/29 12:23:29;;;;;;;11.73;11.20;;;;;;;;;;2610900;54;20477;-72
2023/08/29 12:25:59;;;;;;;12.60;12.10;;;;;;;;;;2610370;54;20396;-72
2023/08/29 12:28:26;;;;;;;11.97;11.37;;;;;;;;;;2609952;54;20455;-72
2023/08/29 12:30:54;;;;;;;12.07;11.57;;;;;;;;;;2610456;54;20399;-72
2023/08/29 12:33:21;;;;;;;12.20;11.70;;;;;;;;;;2604588;39;21005;-72
2023/08/29 12:35:47;;;;;;;12.00;11.50;;;;;;;;;;2608964;31;20913;-72
2023/08/29 12:38:13;;;;;;;12.03;11.40;;;;;;;;;;2609485;39;20846;-72
2023/08/29 12:40:40;;;;;;;11.77;11.27;;;;;;;;;;2609127;54;20954;-72
2023/08/29 12:43:09;;;;;;;11.60;10.90;;;;;;;;;;2609825;39;20994;-72
2023/08/29 12:45:35;;;;;;;12.23;11.73;;;;;;;;;;2609313;54;20387;-72
2023/08/29 12:48:01;;;;;;;11.93;11.13;;;;;;;;;;2610417;54;20479;-72
2023/08/29 12:50:27;;;;;;;11.40;10.90;;;;;;;;;;2609060;54;20392;-72
2023/08/29 12:52:53;;;;;;;12.57;11.97;;;;;;;;;;2610858;54;20398;-72
2023/08/29 12:55:19;;;;;;;11.93;11.37;;;;;;;;;;2610555;39;20928;-73
2023/08/29 12:57:46;;;;;;;11.70;11.20;;;;;;;;;;2610226;39;21108;-72
2023/08/29 13:00:13;;;;;;;12.03;11.50;;;;;;;;;;2609797;39;20808;-72
2023/08/29 13:02:39;;;;;;;11.43;10.93;;;;;;;;;;2609737;54;20422;-72
2023/08/29 13:05:06;;;;;;;10.93;10.53;;;;;;;;;;2608355;54;20411;-72
2023/08/29 13:07:32;;;;;;;12.90;12.20;;;;;;;;;;2610994;54;20426;-71
2023/08/29 13:09:58;;;;;;;13.30;12.70;;;;;;;;;;2608575;54;21523;-72
2023/08/29 13:12:24;;;;;;;11.73;11.23;;;;;;;;;;2608419;54;20388;-71
2023/08/29 13:14:50;;;;;;;12.00;11.27;;;;;;;;;;2609537;54;20454;-72
2023/08/29 13:17:16;;;;;;;12.40;11.73;;;;;;;;;;2610304;54;20530;-72
2023/08/29 13:19:42;;;;;;;11.53;11.00;;;;;;;;;;2609502;54;20396;-72
2023/08/29 13:22:08;;;;;;;11.57;11.07;;;;;;;;;;2609483;54;20494;-72
2023/08/29 13:24:38;;;;;;;11.60;11.00;;;;;;;;;;2611689;39;20885;-72
2023/08/29 13:27:04;;;;;;;11.37;10.90;;;;;;;;;;2611213;54;21280;-71
2023/08/29 13:29:30;;;;;;;11.20;10.50;;;;;;;;;;2611442;54;20412;-71
2023/08/29 13:31:56;;;;;;;12.20;11.70;;;;;;;;;;2608542;54;20419;-71
2023/08/29 13:34:22;;;;;;;11.73;11.10;;;;;;;;;;2608917;54;20555;-72
2023/08/29 13:36:49;;;;;;;11.40;10.90;;;;;;;;;;2608652;47;20426;-73
2023/08/29 13:39:16;;;;;;;11.47;11.03;;;;;;;;;;2609038;54;20778;-72
2023/08/29 13:41:44;;;;;;;11.40;10.90;;;;;;;;;;2609724;54;20392;-72
2023/08/29 13:44:10;;;;;;;12.70;12.10;;;;;;;;;;2609368;54;20408;-72
2023/08/29 13:46:36;;;;;;;11.00;10.50;;;;;;;;;;2610364;54;20419;-72
2023/08/29 13:49:02;;;;;;;11.47;10.97;;;;;;;;;;2612045;54;20424;-71
2023/08/29 13:51:28;;;;;;;11.50;11.10;;;;;;;;;;2610250;54;20941;-71
2023/08/29 13:53:54;;;;;;;13.40;12.80;;;;;;;;;;2613157;54;20454;-71
2023/08/29 13:56:20;;;;;;;11.20;10.80;;;;;;;;;;2611464;54;20395;-71
2023/08/29 13:58:47;;;;;;;12.73;12.23;;;;;;;;;;2610175;54;20942;-71
2023/08/29 14:01:13;;;;;;;12.13;11.20;;;;;;;;;;2612162;54;20976;-72
2023/08/29 14:03:39;;;;;;;11.13;10.40;;;;;;;;;;2608699;54;20407;-72
2023/08/29 14:06:05;;;;;;;11.20;10.80;;;;;;;;;;2609754;54;20483;-72
2023/08/29 14:08:31;;;;;;;12.57;11.97;;;;;;;;;;2611596;54;21122;-72
2023/08/29 14:11:02;;;;;;;12.37;11.60;;;;;;;;;;2609804;54;20450;-74
2023/08/29 14:13:28;;;;;;;11.33;10.87;;;;;;;;;;2609833;54;20411;-71
2023/08/29 14:16:03;;;;;;;10.90;10.40;;;;;;;;;;2608720;54;20965;-72